sensor_id;sensor_type;location;lat;lon;timestamp;pressure;altitude;pressure_sealevel;temperature;humidity
75895;BME280;64573;50.328;15.014;2023-11-22T00:00:28;99128.78;;;6.91;100.00
75895;BME280;64573;50.328;15.014;2023-11-22T00:02:54;99130.22;;;7.03;100.00
75895;BME280;64573;50.328;15.014;2023-11-22T00:05:19;99132.00;;;6.77;100.00
75895;BME280;64573;50.328;15.014;2023-11-22T00:07:44;99139.81;;;6.96;100.00
75895;BME280;64573;50.328;15.014;2023-11-22T00:10:10;99138.31;;;6.13;100.00
75895;BME280;64573;50.328;15.014;2023-11-22T00:12:35;99142.94;;;6.56;100.00
75895;BME280;64573;50.328;15.014;2023-11-22T00:15:05;99144.88;;;6.81;100.00
75895;BME280;64573;50.328;15.014;2023-11-22T00:17:34;99155.16;;;7.20;100.00
75895;BME280;64573;50.328;15.014;2023-11-22T00:20:00;99151.41;;;7.31;100.00
75895;BME280;64573;50.328;15.014;2023-11-22T00:25:03;99154.75;;;6.89;100.00
75895;BME280;64573;50.328;15.014;2023-11-22T00:27:29;99156.69;;;6.16;100.00
75895;BME280;64573;50.328;15.014;2023-11-22T00:29:55;99154.00;;;6.61;100.00
75895;BME280;64573;50.328;15.014;2023-11-22T00:34:52;99151.53;;;6.32;100.00
75895;BME280;64573;50.328;15.014;2023-11-22T00:39:52;99172.53;;;6.07;100.00
75895;BME280;64573;50.328;15.014;2023-11-22T00:42:18;99168.44;;;6.41;100.00
75895;BME280;64573;50.328;15.014;2023-11-22T00:47:10;99170.34;;;6.30;100.00
75895;BME280;64573;50.328;15.014;2023-11-22T00:49:35;99173.69;;;6.50;100.00
75895;BME280;64573;50.328;15.014;2023-11-22T00:52:01;99181.75;;;6.58;100.00
75895;BME280;64573;50.328;15.014;2023-11-22T00:54:28;99180.81;;;6.59;100.00
75895;BME280;64573;50.328;15.014;2023-11-22T00:59:22;99176.91;;;7.07;100.00
75895;BME280;64573;50.328;15.014;2023-11-22T01:01:48;99191.22;;;6.53;100.00
75895;BME280;64573;50.328;15.014;2023-11-22T01:04:13;99192.38;;;6.68;100.00
75895;BME280;64573;50.328;15.014;2023-11-22T01:06:40;99191.25;;;6.43;100.00
75895;BME280;64573;50.328;15.014;2023-11-22T01:11:41;99190.94;;;6.28;100.00
75895;BME280;64573;50.328;15.014;2023-11-22T01:14:08;99199.91;;;6.73;100.00
75895;BME280;64573;50.328;15.014;2023-11-22T01:19:05;99197.91;;;6.39;100.00
75895;BME280;64573;50.328;15.014;2023-11-22T01:21:30;99205.88;;;6.67;100.00
75895;BME280;64573;50.328;15.014;2023-11-22T01:23:56;99201.97;;;6.61;100.00
75895;BME280;64573;50.328;15.014;2023-11-22T01:26:23;99197.00;;;6.66;100.00
75895;BME280;64573;50.328;15.014;2023-11-22T01:28:49;99205.06;;;6.56;100.00
75895;BME280;64573;50.328;15.014;2023-11-22T01:31:14;99211.28;;;7.10;100.00
75895;BME280;64573;50.328;15.014;2023-11-22T01:33:40;99218.72;;;7.07;100.00
75895;BME280;64573;50.328;15.014;2023-11-22T01:36:05;99216.06;;;7.25;100.00
75895;BME280;64573;50.328;15.014;2023-11-22T01:43:37;99216.88;;;6.54;100.00
75895;BME280;64573;50.328;15.014;2023-11-22T01:46:03;99222.63;;;6.77;100.00
75895;BME280;64573;50.328;15.014;2023-11-22T01:48:29;99226.19;;;6.68;100.00
75895;BME280;64573;50.328;15.014;2023-11-22T01:50:55;99221.53;;;7.41;100.00
75895;BME280;64573;50.328;15.014;2023-11-22T01:53:20;99215.53;;;7.03;100.00
75895;BME280;64573;50.328;15.014;2023-11-22T01:55:47;99236.03;;;6.40;100.00
75895;BME280;64573;50.328;15.014;2023-11-22T02:00:50;99230.22;;;6.44;100.00
75895;BME280;64573;50.328;15.014;2023-11-22T02:03:15;99240.75;;;6.18;100.00
75895;BME280;64573;50.328;15.014;2023-11-22T02:05:44;99243.25;;;6.75;100.00
75895;BME280;64573;50.328;15.014;2023-11-22T02:08:11;99244.16;;;7.01;100.00
75895;BME280;64573;50.328;15.014;2023-11-22T02:10:36;99262.28;;;5.88;100.00
75895;BME280;64573;50.328;15.014;2023-11-22T02:13:05;99271.28;;;5.29;100.00
75895;BME280;64573;50.328;15.014;2023-11-22T02:15:34;99276.34;;;5.32;100.00
75895;BME280;64573;50.328;15.014;2023-11-22T02:17:59;99268.53;;;5.30;100.00
75895;BME280;64573;50.328;15.014;2023-11-22T02:20:25;99271.44;;;5.66;100.00
75895;BME280;64573;50.328;15.014;2023-11-22T02:22:51;99266.28;;;5.25;100.00
75895;BME280;64573;50.328;15.014;2023-11-22T02:25:16;99271.03;;;5.22;100.00
75895;BME280;64573;50.328;15.014;2023-11-22T02:30:11;99284.03;;;5.35;100.00
75895;BME280;64573;50.328;15.014;2023-11-22T02:32:36;99287.97;;;5.31;100.00
75895;BME280;64573;50.328;15.014;2023-11-22T02:35:02;99303.63;;;5.34;100.00
75895;BME280;64573;50.328;15.014;2023-11-22T02:37:29;99294.41;;;5.38;100.00
75895;BME280;64573;50.328;15.014;2023-11-22T02:40:04;99300.94;;;5.82;100.00
75895;BME280;64573;50.328;15.014;2023-11-22T02:42:30;99294.25;;;6.62;100.00
75895;BME280;64573;50.328;15.014;2023-11-22T02:44:56;99305.47;;;5.52;100.00
75895;BME280;64573;50.328;15.014;2023-11-22T02:47:22;99310.59;;;6.02;100.00
75895;BME280;64573;50.328;15.014;2023-11-22T02:49:47;99316.75;;;5.93;100.00
75895;BME280;64573;50.328;15.014;2023-11-22T02:52:14;99315.81;;;5.75;100.00
75895;BME280;64573;50.328;15.014;2023-11-22T02:57:09;99336.13;;;5.47;100.00
75895;BME280;64573;50.328;15.014;2023-11-22T02:59:34;99355.16;;;5.62;100.00
75895;BME280;64573;50.328;15.014;2023-11-22T03:04:31;99342.56;;;5.73;100.00
75895;BME280;64573;50.328;15.014;2023-11-22T03:06:56;99337.63;;;5.88;100.00
75895;BME280;64573;50.328;15.014;2023-11-22T03:11:57;99345.97;;;6.22;100.00
75895;BME280;64573;50.328;15.014;2023-11-22T03:14:22;99352.22;;;6.03;100.00
75895;BME280;64573;50.328;15.014;2023-11-22T03:19:17;99373.94;;;5.60;100.00
75895;BME280;64573;50.328;15.014;2023-11-22T03:24:09;99362.03;;;5.74;100.00
75895;BME280;64573;50.328;15.014;2023-11-22T03:26:35;99360.88;;;5.86;100.00
75895;BME280;64573;50.328;15.014;2023-11-22T03:29:01;99376.25;;;6.31;100.00
75895;BME280;64573;50.328;15.014;2023-11-22T03:31:28;99379.69;;;6.51;100.00
75895;BME280;64573;50.328;15.014;2023-11-22T03:33:54;99381.78;;;6.10;100.00
75895;BME280;64573;50.328;15.014;2023-11-22T03:36:20;99385.09;;;5.35;100.00
75895;BME280;64573;50.328;15.014;2023-11-22T03:38:46;99384.66;;;5.10;100.00
75895;BME280;64573;50.328;15.014;2023-11-22T03:41:11;99381.06;;;5.40;100.00
75895;BME280;64573;50.328;15.014;2023-11-22T03:43:37;99397.72;;;4.83;100.00
75895;BME280;64573;50.328;15.014;2023-11-22T03:46:03;99405.53;;;5.24;100.00
75895;BME280;64573;50.328;15.014;2023-11-22T03:48:28;99406.97;;;5.38;100.00
75895;BME280;64573;50.328;15.014;2023-11-22T03:53:22;99411.06;;;5.02;100.00
75895;BME280;64573;50.328;15.014;2023-11-22T03:55:52;99408.34;;;5.42;100.00
75895;BME280;64573;50.328;15.014;2023-11-22T03:58:17;99416.44;;;5.21;100.00
75895;BME280;64573;50.328;15.014;2023-11-22T04:00:43;99406.84;;;5.78;100.00
75895;BME280;64573;50.328;15.014;2023-11-22T04:03:08;99406.59;;;5.91;100.00
75895;BME280;64573;50.328;15.014;2023-11-22T04:05:34;99412.16;;;5.59;100.00
75895;BME280;64573;50.328;15.014;2023-11-22T04:07:59;99423.22;;;5.54;100.00
75895;BME280;64573;50.328;15.014;2023-11-22T04:10:24;99428.72;;;5.72;100.00
75895;BME280;64573;50.328;15.014;2023-11-22T04:12:50;99430.47;;;6.49;100.00
75895;BME280;64573;50.328;15.014;2023-11-22T04:15:15;99440.50;;;5.20;100.00
75895;BME280;64573;50.328;15.014;2023-11-22T04:17:41;99434.03;;;5.13;100.00
75895;BME280;64573;50.328;15.014;2023-11-22T04:20:07;99439.47;;;6.29;100.00
75895;BME280;64573;50.328;15.014;2023-11-22T04:22:41;99448.84;;;5.56;100.00
75895;BME280;64573;50.328;15.014;2023-11-22T04:25:07;99447.06;;;6.14;100.00
75895;BME280;64573;50.328;15.014;2023-11-22T04:29:58;99442.00;;;6.40;100.00
75895;BME280;64573;50.328;15.014;2023-11-22T04:32:24;99440.75;;;7.09;100.00
75895;BME280;64573;50.328;15.014;2023-11-22T04:34:49;99439.94;;;7.08;100.00
75895;BME280;64573;50.328;15.014;2023-11-22T04:37:14;99444.00;;;6.75;100.00
75895;BME280;64573;50.328;15.014;2023-11-22T04:39:39;99452.13;;;7.38;100.00
75895;BME280;64573;50.328;15.014;2023-11-22T04:42:05;99447.19;;;7.16;100.00
75895;BME280;64573;50.328;15.014;2023-11-22T04:44:31;99449.94;;;7.52;100.00
75895;BME280;64573;50.328;15.014;2023-11-22T04:46:57;99451.34;;;7.91;100.00
75895;BME280;64573;50.328;15.014;2023-11-22T04:49:24;99456.34;;;7.41;100.00
75895;BME280;64573;50.328;15.014;2023-11-22T04:51:50;99461.97;;;7.38;100.00
75895;BME280;64573;50.328;15.014;2023-11-22T04:54:15;99459.09;;;7.22;100.00
75895;BME280;64573;50.328;15.014;2023-11-22T04:56:40;99474.47;;;7.83;100.00
75895;BME280;64573;50.328;15.014;2023-11-22T04:59:06;99476.38;;;8.08;100.00
75895;BME280;64573;50.328;15.014;2023-11-22T05:01:32;99479.50;;;8.03;100.00
75895;BME280;64573;50.328;15.014;2023-11-22T05:03:58;99487.28;;;8.50;100.00
75895;BME280;64573;50.328;15.014;2023-11-22T05:06:24;99498.69;;;7.54;100.00
75895;BME280;64573;50.328;15.014;2023-11-22T05:08:49;99514.31;;;7.49;100.00
75895;BME280;64573;50.328;15.014;2023-11-22T05:11:15;99529.25;;;6.95;100.00
75895;BME280;64573;50.328;15.014;2023-11-22T05:13:41;99540.78;;;7.32;100.00
75895;BME280;64573;50.328;15.014;2023-11-22T05:16:08;99537.91;;;7.71;100.00
75895;BME280;64573;50.328;15.014;2023-11-22T05:20:58;99549.69;;;7.78;100.00
75895;BME280;64573;50.328;15.014;2023-11-22T05:23:24;99543.91;;;7.55;100.00
75895;BME280;64573;50.328;15.014;2023-11-22T05:25:49;99546.22;;;6.94;100.00
75895;BME280;64573;50.328;15.014;2023-11-22T05:28:14;99544.34;;;7.13;100.00
75895;BME280;64573;50.328;15.014;2023-11-22T05:30:40;99558.53;;;7.51;100.00
75895;BME280;64573;50.328;15.014;2023-11-22T05:33:05;99556.75;;;6.95;100.00
75895;BME280;64573;50.328;15.014;2023-11-22T05:35:30;99575.31;;;6.77;100.00
75895;BME280;64573;50.328;15.014;2023-11-22T05:37:56;99571.00;;;6.67;100.00
75895;BME280;64573;50.328;15.014;2023-11-22T05:40:25;99568.88;;;6.22;100.00
75895;BME280;64573;50.328;15.014;2023-11-22T05:42:51;99573.44;;;5.91;100.00
75895;BME280;64573;50.328;15.014;2023-11-22T05:47:51;99578.72;;;6.31;100.00
75895;BME280;64573;50.328;15.014;2023-11-22T05:50:17;99579.97;;;6.17;100.00
75895;BME280;64573;50.328;15.014;2023-11-22T05:55:11;99600.31;;;6.38;100.00
75895;BME280;64573;50.328;15.014;2023-11-22T05:57:39;99588.09;;;6.74;100.00
75895;BME280;64573;50.328;15.014;2023-11-22T06:00:06;99578.81;;;7.34;100.00
75895;BME280;64573;50.328;15.014;2023-11-22T06:02:31;99595.91;;;6.95;100.00
75895;BME280;64573;50.328;15.014;2023-11-22T06:04:56;99589.75;;;6.65;100.00
75895;BME280;64573;50.328;15.014;2023-11-22T06:07:22;99591.75;;;7.29;100.00
75895;BME280;64573;50.328;15.014;2023-11-22T06:09:47;99601.16;;;6.67;100.00
75895;BME280;64573;50.328;15.014;2023-11-22T06:12:13;99612.34;;;6.71;100.00
75895;BME280;64573;50.328;15.014;2023-11-22T06:14:39;99621.84;;;7.02;100.00
75895;BME280;64573;50.328;15.014;2023-11-22T06:17:04;99618.78;;;6.97;100.00
75895;BME280;64573;50.328;15.014;2023-11-22T06:19:30;99600.78;;;7.18;100.00
75895;BME280;64573;50.328;15.014;2023-11-22T06:21:56;99607.44;;;6.76;100.00
75895;BME280;64573;50.328;15.014;2023-11-22T06:24:21;99616.13;;;6.29;100.00
75895;BME280;64573;50.328;15.014;2023-11-22T06:26:46;99607.88;;;6.52;100.00
75895;BME280;64573;50.328;15.014;2023-11-22T06:29:12;99613.31;;;6.99;100.00
75895;BME280;64573;50.328;15.014;2023-11-22T06:31:38;99608.56;;;6.73;100.00
75895;BME280;64573;50.328;15.014;2023-11-22T06:34:03;99617.56;;;6.82;100.00
75895;BME280;64573;50.328;15.014;2023-11-22T06:36:29;99617.13;;;6.67;100.00
75895;BME280;64573;50.328;15.014;2023-11-22T06:38:55;99622.72;;;6.35;100.00
75895;BME280;64573;50.328;15.014;2023-11-22T06:41:20;99633.53;;;6.72;100.00
75895;BME280;64573;50.328;15.014;2023-11-22T06:43:47;99626.06;;;6.37;100.00
75895;BME280;64573;50.328;15.014;2023-11-22T06:46:13;99619.63;;;6.20;100.00
75895;BME280;64573;50.328;15.014;2023-11-22T06:48:41;99634.22;;;6.26;100.00
75895;BME280;64573;50.328;15.014;2023-11-22T06:51:06;99652.47;;;6.40;100.00
75895;BME280;64573;50.328;15.014;2023-11-22T06:53:32;99648.75;;;6.02;100.00
75895;BME280;64573;50.328;15.014;2023-11-22T06:55:57;99643.19;;;7.02;100.00
75895;BME280;64573;50.328;15.014;2023-11-22T06:58:22;99644.47;;;6.79;100.00
75895;BME280;64573;50.328;15.014;2023-11-22T07:00:48;99664.28;;;6.96;100.00
75895;BME280;64573;50.328;15.014;2023-11-22T07:05:38;99668.31;;;6.51;100.00
75895;BME280;64573;50.328;15.014;2023-11-22T07:08:04;99658.66;;;6.89;100.00
75895;BME280;64573;50.328;15.014;2023-11-22T07:10:29;99648.97;;;6.98;100.00
75895;BME280;64573;50.328;15.014;2023-11-22T07:12:59;99660.44;;;7.27;100.00
75895;BME280;64573;50.328;15.014;2023-11-22T07:15:26;99666.09;;;6.76;100.00
75895;BME280;64573;50.328;15.014;2023-11-22T07:17:52;99662.28;;;6.88;100.00
75895;BME280;64573;50.328;15.014;2023-11-22T07:20:17;99662.00;;;7.20;100.00
75895;BME280;64573;50.328;15.014;2023-11-22T07:22:43;99666.06;;;7.14;100.00
75895;BME280;64573;50.328;15.014;2023-11-22T07:25:09;99669.72;;;6.94;100.00
75895;BME280;64573;50.328;15.014;2023-11-22T07:27:46;99670.63;;;7.51;100.00
75895;BME280;64573;50.328;15.014;2023-11-22T07:30:13;99672.13;;;7.07;100.00
75895;BME280;64573;50.328;15.014;2023-11-22T07:32:39;99686.41;;;6.57;100.00
75895;BME280;64573;50.328;15.014;2023-11-22T07:35:06;99690.53;;;6.81;100.00
75895;BME280;64573;50.328;15.014;2023-11-22T07:37:34;99695.69;;;6.73;100.00
75895;BME280;64573;50.328;15.014;2023-11-22T07:40:00;99705.44;;;6.24;100.00
75895;BME280;64573;50.328;15.014;2023-11-22T07:42:28;99713.66;;;6.71;100.00
75895;BME280;64573;50.328;15.014;2023-11-22T07:44:53;99720.38;;;6.65;100.00
75895;BME280;64573;50.328;15.014;2023-11-22T07:47:24;99734.56;;;6.85;100.00
75895;BME280;64573;50.328;15.014;2023-11-22T07:49:53;99741.44;;;6.87;100.00
75895;BME280;64573;50.328;15.014;2023-11-22T07:54:49;99742.47;;;6.36;100.00
75895;BME280;64573;50.328;15.014;2023-11-22T07:57:14;99749.50;;;6.38;100.00
75895;BME280;64573;50.328;15.014;2023-11-22T07:59:39;99739.47;;;6.20;100.00
75895;BME280;64573;50.328;15.014;2023-11-22T08:02:05;99730.03;;;6.06;100.00
75895;BME280;64573;50.328;15.014;2023-11-22T08:04:36;99733.69;;;6.65;100.00
75895;BME280;64573;50.328;15.014;2023-11-22T08:07:01;99731.69;;;6.38;100.00
75895;BME280;64573;50.328;15.014;2023-11-22T08:09:27;99726.94;;;6.51;100.00
75895;BME280;64573;50.328;15.014;2023-11-22T08:11:58;99711.47;;;6.35;100.00
75895;BME280;64573;50.328;15.014;2023-11-22T08:14:23;99707.56;;;6.40;100.00
75895;BME280;64573;50.328;15.014;2023-11-22T08:16:52;99705.91;;;6.08;100.00
75895;BME280;64573;50.328;15.014;2023-11-22T08:19:17;99719.16;;;6.29;100.00
75895;BME280;64573;50.328;15.014;2023-11-22T08:21:43;99718.97;;;6.11;100.00
75895;BME280;64573;50.328;15.014;2023-11-22T08:26:40;99768.78;;;6.30;100.00
75895;BME280;64573;50.328;15.014;2023-11-22T08:29:05;99774.13;;;6.30;100.00
75895;BME280;64573;50.328;15.014;2023-11-22T08:34:07;99783.03;;;5.47;100.00
75895;BME280;64573;50.328;15.014;2023-11-22T08:46:54;99790.03;;;5.90;100.00
75895;BME280;64573;50.328;15.014;2023-11-22T08:54:30;99777.78;;;5.98;100.00
75895;BME280;64573;50.328;15.014;2023-11-22T08:56:56;99776.97;;;6.38;100.00
75895;BME280;64573;50.328;15.014;2023-11-22T08:59:21;99779.31;;;6.01;100.00
75895;BME280;64573;50.328;15.014;2023-11-22T09:01:47;99785.69;;;6.10;100.00
75895;BME280;64573;50.328;15.014;2023-11-22T09:04:12;99785.63;;;6.71;100.00
75895;BME280;64573;50.328;15.014;2023-11-22T09:09:03;99795.16;;;6.73;100.00
75895;BME280;64573;50.328;15.014;2023-11-22T09:13:58;99793.81;;;7.56;99.77
75895;BME280;64573;50.328;15.014;2023-11-22T09:16:23;99796.41;;;7.95;97.05
75895;BME280;64573;50.328;15.014;2023-11-22T09:18:50;99791.13;;;7.76;92.35
75895;BME280;64573;50.328;15.014;2023-11-22T09:21:16;99797.44;;;6.87;100.00
75895;BME280;64573;50.328;15.014;2023-11-22T09:23:45;99806.31;;;7.07;100.00
75895;BME280;64573;50.328;15.014;2023-11-22T09:26:13;99810.81;;;7.16;100.00
75895;BME280;64573;50.328;15.014;2023-11-22T09:28:39;99803.47;;;7.86;99.37
75895;BME280;64573;50.328;15.014;2023-11-22T09:31:05;99792.44;;;8.55;92.03
75895;BME280;64573;50.328;15.014;2023-11-22T09:33:31;99800.94;;;9.32;88.19
75895;BME280;64573;50.328;15.014;2023-11-22T09:35:57;99805.91;;;8.91;86.61
75895;BME280;64573;50.328;15.014;2023-11-22T09:38:28;99812.78;;;8.66;88.81
75895;BME280;64573;50.328;15.014;2023-11-22T09:40:53;99814.94;;;8.63;84.84
75895;BME280;64573;50.328;15.014;2023-11-22T09:43:19;99820.16;;;8.82;88.22
75895;BME280;64573;50.328;15.014;2023-11-22T09:45:49;99823.63;;;8.18;93.32
75895;BME280;64573;50.328;15.014;2023-11-22T09:50:50;99826.91;;;8.12;95.28
75895;BME280;64573;50.328;15.014;2023-11-22T09:55:53;99817.13;;;9.84;83.68
75895;BME280;64573;50.328;15.014;2023-11-22T09:58:19;99836.44;;;9.52;81.49
75895;BME280;64573;50.328;15.014;2023-11-22T10:00:46;99836.00;;;8.93;85.44
75895;BME280;64573;50.328;15.014;2023-11-22T10:03:12;99841.84;;;9.24;84.63
75895;BME280;64573;50.328;15.014;2023-11-22T10:05:42;99829.47;;;9.59;81.81
75895;BME280;64573;50.328;15.014;2023-11-22T10:08:08;99837.13;;;8.91;86.95
75895;BME280;64573;50.328;15.014;2023-11-22T10:10:36;99844.66;;;7.84;98.21
75895;BME280;64573;50.328;15.014;2023-11-22T10:13:02;99844.34;;;8.63;91.16
75895;BME280;64573;50.328;15.014;2023-11-22T10:15:28;99856.44;;;7.13;100.00
75895;BME280;64573;50.328;15.014;2023-11-22T10:17:56;99861.78;;;7.13;100.00
75895;BME280;64573;50.328;15.014;2023-11-22T10:20:25;99877.44;;;8.52;100.00
75895;BME280;64573;50.328;15.014;2023-11-22T10:22:53;99893.63;;;8.88;100.00
75895;BME280;64573;50.328;15.014;2023-11-22T10:25:19;99895.06;;;9.09;100.00
75895;BME280;64573;50.328;15.014;2023-11-22T10:27:45;99894.31;;;9.17;99.85
75895;BME280;64573;50.328;15.014;2023-11-22T10:30:12;99887.84;;;9.37;100.00
75895;BME280;64573;50.328;15.014;2023-11-22T10:32:37;99868.38;;;9.18;100.00
75895;BME280;64573;50.328;15.014;2023-11-22T10:35:06;99880.06;;;8.62;100.00
75895;BME280;64573;50.328;15.014;2023-11-22T10:37:32;99874.34;;;8.56;100.00
75895;BME280;64573;50.328;15.014;2023-11-22T10:39:57;99886.75;;;8.28;100.00
75895;BME280;64573;50.328;15.014;2023-11-22T10:42:24;99893.09;;;8.74;100.00
75895;BME280;64573;50.328;15.014;2023-11-22T10:44:50;99889.03;;;9.07;100.00
75895;BME280;64573;50.328;15.014;2023-11-22T10:47:15;99886.84;;;8.56;100.00
75895;BME280;64573;50.328;15.014;2023-11-22T10:49:44;99896.97;;;8.90;100.00
75895;BME280;64573;50.328;15.014;2023-11-22T10:52:12;99901.91;;;8.94;100.00
75895;BME280;64573;50.328;15.014;2023-11-22T10:54:42;99903.75;;;9.11;99.99
75895;BME280;64573;50.328;15.014;2023-11-22T10:57:11;99903.38;;;9.06;98.94
75895;BME280;64573;50.328;15.014;2023-11-22T11:04:34;99889.78;;;8.63;100.00
75895;BME280;64573;50.328;15.014;2023-11-22T11:07:04;99902.78;;;8.28;100.00
75895;BME280;64573;50.328;15.014;2023-11-22T11:09:31;99899.84;;;8.41;100.00
75895;BME280;64573;50.328;15.014;2023-11-22T11:11:58;99898.88;;;8.13;100.00
75895;BME280;64573;50.328;15.014;2023-11-22T11:14:24;99889.91;;;8.05;100.00
75895;BME280;64573;50.328;15.014;2023-11-22T11:16:51;99896.75;;;8.36;100.00
75895;BME280;64573;50.328;15.014;2023-11-22T11:19:20;99881.72;;;8.35;100.00
75895;BME280;64573;50.328;15.014;2023-11-22T11:21:50;99878.16;;;8.35;100.00
75895;BME280;64573;50.328;15.014;2023-11-22T11:24:17;99885.53;;;8.70;100.00
75895;BME280;64573;50.328;15.014;2023-11-22T11:29:32;99881.41;;;8.28;100.00
75895;BME280;64573;50.328;15.014;2023-11-22T11:31:58;99888.34;;;8.02;100.00
75895;BME280;64573;50.328;15.014;2023-11-22T11:34:23;99886.47;;;8.32;100.00
75895;BME280;64573;50.328;15.014;2023-11-22T11:36:52;99878.63;;;8.11;100.00
75895;BME280;64573;50.328;15.014;2023-11-22T11:39:25;99882.41;;;8.27;100.00
75895;BME280;64573;50.328;15.014;2023-11-22T11:41:52;99888.50;;;8.67;100.00
75895;BME280;64573;50.328;15.014;2023-11-22T11:44:17;99891.78;;;8.51;100.00
75895;BME280;64573;50.328;15.014;2023-11-22T11:46:44;99887.72;;;8.47;100.00
75895;BME280;64573;50.328;15.014;2023-11-22T11:49:12;99894.97;;;7.98;100.00
75895;BME280;64573;50.328;15.014;2023-11-22T11:51:40;99897.09;;;7.65;100.00
75895;BME280;64573;50.328;15.014;2023-11-22T11:54:06;99889.34;;;7.72;100.00
75895;BME280;64573;50.328;15.014;2023-11-22T11:56:33;99900.88;;;7.72;100.00
75895;BME280;64573;50.328;15.014;2023-11-22T11:58:59;99893.03;;;7.90;100.00
75895;BME280;64573;50.328;15.014;2023-11-22T12:01:28;99896.91;;;8.15;100.00
75895;BME280;64573;50.328;15.014;2023-11-22T12:03:54;99902.38;;;8.33;100.00
75895;BME280;64573;50.328;15.014;2023-11-22T12:06:20;99918.41;;;8.33;98.68
75895;BME280;64573;50.328;15.014;2023-11-22T12:08:46;99907.06;;;8.68;98.13
75895;BME280;64573;50.328;15.014;2023-11-22T12:11:12;99913.53;;;9.03;95.40
75895;BME280;64573;50.328;15.014;2023-11-22T12:13:38;99918.97;;;8.37;98.05
75895;BME280;64573;50.328;15.014;2023-11-22T12:16:05;99916.13;;;8.57;98.41
75895;BME280;64573;50.328;15.014;2023-11-22T12:18:49;99923.03;;;8.88;94.74
75895;BME280;64573;50.328;15.014;2023-11-22T12:21:18;99930.63;;;9.20;93.05
75895;BME280;64573;50.328;15.014;2023-11-22T12:23:44;99940.38;;;9.11;91.34
75895;BME280;64573;50.328;15.014;2023-11-22T12:26:19;99933.78;;;9.33;90.91
75895;BME280;64573;50.328;15.014;2023-11-22T12:28:45;99940.63;;;8.90;91.85
75895;BME280;64573;50.328;15.014;2023-11-22T12:31:12;99939.78;;;8.90;91.69
75895;BME280;64573;50.328;15.014;2023-11-22T12:33:38;99947.56;;;9.10;90.95
75895;BME280;64573;50.328;15.014;2023-11-22T12:36:06;99943.47;;;9.44;88.94
75895;BME280;64573;50.328;15.014;2023-11-22T12:38:34;99933.00;;;8.95;90.18
75895;BME280;64573;50.328;15.014;2023-11-22T12:40:59;99930.59;;;9.29;89.45
75895;BME280;64573;50.328;15.014;2023-11-22T12:43:27;99931.94;;;9.16;88.79
75895;BME280;64573;50.328;15.014;2023-11-22T12:48:27;99930.94;;;9.17;88.99
75895;BME280;64573;50.328;15.014;2023-11-22T12:50:57;99926.75;;;9.04;88.53
75895;BME280;64573;50.328;15.014;2023-11-22T12:53:23;99925.53;;;8.99;90.63
75895;BME280;64573;50.328;15.014;2023-11-22T12:55:54;99921.78;;;8.92;90.29
75895;BME280;64573;50.328;15.014;2023-11-22T12:58:21;99919.81;;;9.11;90.06
75895;BME280;64573;50.328;15.014;2023-11-22T13:00:48;99918.25;;;8.91;89.27
75895;BME280;64573;50.328;15.014;2023-11-22T13:03:14;99901.56;;;9.07;88.71
75895;BME280;64573;50.328;15.014;2023-11-22T13:05:41;99906.41;;;8.47;91.51
75895;BME280;64573;50.328;15.014;2023-11-22T13:10:35;99902.09;;;8.36;95.37
75895;BME280;64573;50.328;15.014;2023-11-22T13:13:00;99908.03;;;8.20;96.00
75895;BME280;64573;50.328;15.014;2023-11-22T13:15:26;99907.16;;;8.49;95.60
75895;BME280;64573;50.328;15.014;2023-11-22T13:17:55;99909.41;;;8.24;96.13
75895;BME280;64573;50.328;15.014;2023-11-22T13:20:24;99912.78;;;8.83;94.71
75895;BME280;64573;50.328;15.014;2023-11-22T13:22:51;99918.81;;;8.48;94.10
75895;BME280;64573;50.328;15.014;2023-11-22T13:25:16;99915.28;;;8.57;93.82
75895;BME280;64573;50.328;15.014;2023-11-22T13:27:47;99913.06;;;8.80;93.09
75895;BME280;64573;50.328;15.014;2023-11-22T13:32:42;99928.75;;;9.30;90.17
75895;BME280;64573;50.328;15.014;2023-11-22T13:35:09;99933.25;;;9.02;89.99
75895;BME280;64573;50.328;15.014;2023-11-22T13:37:33;99945.69;;;8.17;92.87
75895;BME280;64573;50.328;15.014;2023-11-22T13:40:00;99947.91;;;8.61;94.87
75895;BME280;64573;50.328;15.014;2023-11-22T13:42:26;99962.59;;;8.08;95.76
75895;BME280;64573;50.328;15.014;2023-11-22T13:44:51;99946.78;;;9.00;92.54
75895;BME280;64573;50.328;15.014;2023-11-22T13:47:17;99932.56;;;9.27;91.87
75895;BME280;64573;50.328;15.014;2023-11-22T13:49:42;99938.56;;;8.74;95.23
75895;BME280;64573;50.328;15.014;2023-11-22T13:52:08;99935.88;;;8.84;95.03
75895;BME280;64573;50.328;15.014;2023-11-22T13:54:34;99926.41;;;9.17;93.12
75895;BME280;64573;50.328;15.014;2023-11-22T13:57:03;99915.66;;;9.27;91.89
75895;BME280;64573;50.328;15.014;2023-11-22T13:59:29;99913.63;;;9.11;93.57
75895;BME280;64573;50.328;15.014;2023-11-22T14:01:54;99905.91;;;8.80;94.46
75895;BME280;64573;50.328;15.014;2023-11-22T14:04:19;99909.78;;;9.23;93.56
75895;BME280;64573;50.328;15.014;2023-11-22T14:06:45;99911.03;;;9.19;93.53
75895;BME280;64573;50.328;15.014;2023-11-22T14:09:11;99918.56;;;9.33;92.18
75895;BME280;64573;50.328;15.014;2023-11-22T14:11:38;99936.13;;;8.44;91.76
75895;BME280;64573;50.328;15.014;2023-11-22T14:14:03;99943.88;;;8.27;92.75
75895;BME280;64573;50.328;15.014;2023-11-22T14:16:29;99942.50;;;7.85;99.23
75895;BME280;64573;50.328;15.014;2023-11-22T14:18:56;99945.84;;;7.96;100.00
75895;BME280;64573;50.328;15.014;2023-11-22T14:21:22;99942.22;;;7.68;99.55
75895;BME280;64573;50.328;15.014;2023-11-22T14:23:50;99934.47;;;7.94;98.05
75895;BME280;64573;50.328;15.014;2023-11-22T14:26:15;99926.56;;;7.44;100.00
75895;BME280;64573;50.328;15.014;2023-11-22T14:28:40;99944.00;;;7.58;100.00
75895;BME280;64573;50.328;15.014;2023-11-22T14:31:06;99944.00;;;7.49;100.00